Time;durP1;ratioP1;P1;durP2;ratioP2;P2;SDS_P1;SDS_P2;PMS_P1;PMS_P2;Temp;Humidity;BMP_temperature;BMP_pressure;BME280_temperature;BME280_humidity;BME280_pressure;Samples;Min_cycle;Max_cycle;Signal;HPM_P1;HPM_P2
2022/01/22 00:00:21;;;;;;;20.98;10.43;;;2.90;99.90;;;;;;5017738;28;98067;-81
2022/01/22 00:02:47;;;;;;;20.33;9.90;;;2.90;99.90;;;;;;5014776;28;95327;-80
2022/01/22 00:05:16;;;;;;;17.48;10.20;;;2.90;99.90;;;;;;4996445;28;94904;-79
2022/01/22 00:07:42;;;;;;;20.52;10.75;;;2.90;99.90;;;;;;4995380;28;94500;-79
2022/01/22 00:10:13;;;;;;;18.88;10.27;;;2.80;99.90;;;;;;4998138;28;96514;-79
2022/01/22 00:15:10;;;;;;;19.60;10.05;;;2.90;99.90;;;;;;5000101;28;94657;-79
2022/01/22 00:17:36;;;;;;;22.63;10.25;;;2.90;99.90;;;;;;4998052;28;93727;-80
2022/01/22 00:20:04;;;;;;;18.75;10.60;;;2.90;99.90;;;;;;4998936;28;94445;-79
2022/01/22 00:22:32;;;;;;;19.48;10.80;;;3.00;99.90;;;;;;4998200;28;96520;-80
2022/01/22 00:25:00;;;;;;;18.35;10.35;;;2.90;99.90;;;;;;5001823;28;95267;-80
2022/01/22 00:27:27;;;;;;;19.10;9.93;;;2.90;99.90;;;;;;5001590;28;94511;-79
2022/01/22 00:29:53;;;;;;;17.80;10.27;;;3.00;99.90;;;;;;4999952;28;96294;-80
2022/01/22 05:01:32;;;;;;;25.92;12.07;;;3.30;99.90;;;;;;5477810;22;96056;-76
2022/01/22 05:03:58;;;;;;;26.58;13.25;;;3.30;99.90;;;;;;4995593;28;96743;-78
2022/01/22 05:06:26;;;;;;;19.70;11.40;;;3.30;99.90;;;;;;4998400;28;95000;-78
2022/01/22 05:08:51;;;;;;;22.45;12.07;;;3.30;99.90;;;;;;4997737;28;94513;-78
2022/01/22 05:11:18;;;;;;;21.15;11.85;;;3.30;99.90;;;;;;4998379;28;94316;-77
2022/01/22 05:13:43;;;;;;;21.77;12.73;;;3.30;99.90;;;;;;4997195;28;97211;-78
2022/01/22 05:16:09;;;;;;;22.67;12.35;;;3.30;99.90;;;;;;4997972;28;95040;-79
2022/01/22 05:18:41;;;;;;;21.35;12.70;;;3.30;99.90;;;;;;4998610;28;94790;-81
2022/01/22 05:21:11;;;;;;;24.83;12.98;;;3.30;99.90;;;;;;4998616;28;94466;-80
2022/01/22 05:23:38;;;;;;;22.65;12.35;;;3.30;99.90;;;;;;5003582;28;96260;-77
2022/01/22 05:26:09;;;;;;;26.92;12.75;;;3.30;99.90;;;;;;5022084;28;95916;-75
2022/01/22 05:36:59;;;;;;;22.45;11.93;;;3.30;99.90;;;;;;4998665;28;94464;-80
2022/01/22 05:39:28;;;;;;;24.92;12.88;;;3.20;99.90;;;;;;4998989;28;94512;-80
2022/01/22 05:41:55;;;;;;;22.58;12.55;;;3.20;99.90;;;;;;4998757;28;93832;-81
2022/01/22 05:44:21;;;;;;;24.40;13.02;;;3.20;99.90;;;;;;4999890;28;95229;-80
2022/01/22 05:46:48;;;;;;;24.90;12.40;;;3.30;99.90;;;;;;5000064;28;95400;-80
2022/01/22 05:49:13;;;;;;;23.00;12.63;;;3.20;99.90;;;;;;4999764;28;95296;-79
2022/01/22 05:51:41;;;;;;;22.25;11.63;;;3.20;99.90;;;;;;4998480;28;94454;-80
2022/01/22 05:59:45;;;;;;;27.10;12.75;;;3.20;99.90;;;;;;4999783;28;94389;-80
2022/01/22 06:02:15;;;;;;;23.98;13.45;;;3.20;99.90;;;;;;4999960;28;94782;-80
2022/01/22 06:04:42;;;;;;;25.60;13.27;;;3.30;99.90;;;;;;4997971;28;100862;-79
2022/01/22 06:07:08;;;;;;;31.27;13.98;;;3.20;99.90;;;;;;4998311;28;95428;-80
2022/01/22 06:09:38;;;;;;;23.17;12.80;;;3.20;99.90;;;;;;4998654;28;94438;-79
2022/01/22 06:12:16;;;;;;;24.92;13.40;;;3.20;99.90;;;;;;4999355;28;94566;-79
2022/01/22 06:14:42;;;;;;;22.90;12.50;;;3.20;99.90;;;;;;5004266;28;98028;-80
2022/01/22 06:17:08;;;;;;;25.40;12.70;;;3.20;99.90;;;;;;5004799;28;96310;-79
2022/01/22 06:19:34;;;;;;;23.88;13.63;;;3.20;99.90;;;;;;4999333;28;94228;-80
2022/01/22 06:21:59;;;;;;;21.25;12.63;;;3.20;99.90;;;;;;5000750;28;94309;-78
2022/01/22 06:24:25;;;;;;;28.90;12.77;;;3.30;99.90;;;;;;4997752;28;96887;-80
2022/01/22 06:26:51;;;;;;;23.42;13.70;;;3.30;99.90;;;;;;4998537;28;96634;-80
2022/01/22 06:29:17;;;;;;;25.15;13.40;;;3.20;99.90;;;;;;4998779;28;94394;-80
2022/01/22 06:31:42;;;;;;;22.48;11.93;;;3.30;99.90;;;;;;4997400;28;93783;-78
2022/01/22 06:34:08;;;;;;;25.60;13.02;;;3.30;99.90;;;;;;4996173;28;97681;-80
2022/01/22 06:36:34;;;;;;;23.27;13.07;;;3.30;99.90;;;;;;4998593;28;95355;-80
2022/01/22 06:39:12;;;;;;;23.58;12.57;;;3.30;99.90;;;;;;4998824;28;95430;-80
2022/01/22 06:41:45;;;;;;;21.27;12.05;;;3.30;99.90;;;;;;4996983;28;94591;-80
2022/01/22 06:44:11;;;;;;;21.88;12.63;;;3.30;99.90;;;;;;4998139;28;95243;-80
2022/01/22 06:46:37;;;;;;;27.13;13.02;;;3.40;99.90;;;;;;4998205;28;94952;-78
2022/01/22 06:49:03;;;;;;;22.13;12.15;;;3.40;99.90;;;;;;4999364;28;94394;-80
2022/01/22 06:51:28;;;;;;;20.08;11.40;;;3.40;99.90;;;;;;4996857;28;94568;-79
2022/01/22 06:53:55;;;;;;;18.80;11.30;;;3.40;99.90;;;;;;4998142;28;95829;-80
2022/01/22 06:56:22;;;;;;;21.67;12.00;;;3.50;99.90;;;;;;4998977;28;94024;-80
2022/01/22 06:58:48;;;;;;;19.10;11.60;;;3.50;99.90;;;;;;4998889;28;94596;-80
2022/01/22 07:01:15;;;;;;;20.42;11.75;;;3.50;99.90;;;;;;4998347;28;94539;-80
2022/01/22 07:03:41;;;;;;;20.67;11.57;;;3.40;99.90;;;;;;4997706;28;95486;-78
2022/01/22 07:06:06;;;;;;;23.73;11.95;;;3.50;99.90;;;;;;4998119;28;94878;-80
2022/01/22 07:08:32;;;;;;;24.58;11.88;;;3.50;99.90;;;;;;4998695;28;94398;-80
2022/01/22 07:10:57;;;;;;;20.42;11.77;;;3.50;99.90;;;;;;4999007;28;94417;-80
2022/01/22 07:13:23;;;;;;;19.33;10.70;;;3.50;99.90;;;;;;4998133;28;94399;-80
2022/01/22 07:15:49;;;;;;;20.13;11.63;;;3.60;99.90;;;;;;4997995;28;95268;-81
2022/01/22 07:18:14;;;;;;;19.35;10.85;;;3.60;99.90;;;;;;4999186;28;94377;-81
2022/01/22 07:20:41;;;;;;;22.33;11.38;;;3.60;99.90;;;;;;4999602;28;93732;-80
2022/01/22 07:23:52;;;;;;;20.08;11.43;;;3.60;99.90;;;;;;4996390;28;98355;-81
2022/01/22 07:26:07;;;;;;;20.65;11.57;;;3.60;99.90;;;;;;4997481;28;95872;-78
2022/01/22 07:28:33;;;;;;;19.85;10.70;;;3.60;99.90;;;;;;4993952;28;95097;-78
2022/01/22 07:31:03;;;;;;;25.23;10.52;;;3.60;99.90;;;;;;4995407;28;94545;-78
2022/01/22 07:33:29;;;;;;;23.85;11.13;;;3.60;99.90;;;;;;4995086;28;96029;-78
2022/01/22 07:35:55;;;;;;;19.10;10.93;;;3.60;99.90;;;;;;4996280;28;95370;-79
2022/01/22 07:38:21;;;;;;;20.75;11.88;;;3.60;99.90;;;;;;4995672;28;94423;-81
2022/01/22 07:40:47;;;;;;;23.40;11.65;;;3.60;99.90;;;;;;4995404;28;94510;-78
2022/01/22 07:43:16;;;;;;;22.13;11.68;;;3.60;99.90;;;;;;4996160;28;94980;-79
2022/01/22 07:45:42;;;;;;;19.83;11.43;;;3.70;99.90;;;;;;4995643;28;95297;-78
2022/01/22 07:48:08;;;;;;;25.33;11.15;;;3.60;99.90;;;;;;4995200;28;94469;-78
2022/01/22 07:50:34;;;;;;;19.85;11.25;;;3.60;99.90;;;;;;4995043;28;94444;-78
2022/01/22 07:53:01;;;;;;;23.30;12.38;;;3.70;99.90;;;;;;5000689;28;96233;-78
2022/01/22 07:55:27;;;;;;;19.13;11.15;;;3.60;99.90;;;;;;5002787;28;95922;-78
2022/01/22 07:57:53;;;;;;;18.08;11.68;;;3.70;99.90;;;;;;5003064;28;94386;-78
2022/01/22 08:00:19;;;;;;;21.63;12.02;;;3.70;99.90;;;;;;4993726;28;94431;-79
2022/01/22 08:02:45;;;;;;;23.20;11.57;;;3.70;99.90;;;;;;4993346;28;97917;-78
2022/01/22 08:05:11;;;;;;;17.92;11.00;;;3.80;99.90;;;;;;4995420;28;94508;-78
2022/01/22 08:07:38;;;;;;;20.90;11.57;;;3.80;99.90;;;;;;4993970;28;94494;-79
2022/01/22 08:10:08;;;;;;;21.10;12.13;;;3.80;99.90;;;;;;4995412;28;93727;-78
2022/01/22 08:12:35;;;;;;;25.98;11.93;;;3.80;99.90;;;;;;4994382;28;94361;-78
2022/01/22 08:15:01;;;;;;;22.80;11.88;;;3.80;99.90;;;;;;4993175;28;97972;-78
2022/01/22 08:17:27;;;;;;;24.00;11.35;;;3.70;99.90;;;;;;4994651;28;95384;-78
2022/01/22 08:19:53;;;;;;;21.42;11.20;;;3.80;99.90;;;;;;4993072;28;94687;-78
2022/01/22 08:22:19;;;;;;;19.77;11.25;;;3.80;99.90;;;;;;4994448;28;94473;-78
2022/01/22 08:24:45;;;;;;;22.13;11.85;;;3.80;99.90;;;;;;4994237;28;95009;-79
2022/01/22 08:27:18;;;;;;;23.60;12.20;;;3.80;99.90;;;;;;4993436;28;94497;-78
2022/01/22 08:29:44;;;;;;;23.48;12.07;;;3.80;99.90;;;;;;4995353;28;94453;-81
2022/01/22 08:37:21;;;;;;;26.00;12.50;;;3.90;99.90;;;;;;5000404;28;94676;-78
2022/01/22 08:39:47;;;;;;;22.27;11.40;;;3.90;99.90;;;;;;5006575;28;94345;-82
2022/01/22 08:42:13;;;;;;;19.33;11.45;;;3.90;99.90;;;;;;5012975;28;97627;-80
2022/01/22 08:44:40;;;;;;;21.65;12.13;;;3.90;99.90;;;;;;5013521;28;97876;-79
2022/01/22 08:47:06;;;;;;;22.92;12.38;;;3.90;99.90;;;;;;5020119;28;94282;-80
2022/01/22 08:49:31;;;;;;;22.25;12.35;;;3.90;99.90;;;;;;5007631;28;94402;-80
2022/01/22 08:51:57;;;;;;;23.85;12.75;;;3.90;99.90;;;;;;4998781;28;95336;-78
2022/01/22 08:54:23;;;;;;;24.77;12.82;;;3.90;99.90;;;;;;4998660;28;94399;-78
2022/01/22 08:56:48;;;;;;;22.70;12.60;;;3.90;99.90;;;;;;4998167;28;94401;-78
2022/01/22 08:59:14;;;;;;;23.52;13.20;;;3.90;99.90;;;;;;4998565;28;93777;-81
2022/01/22 09:01:46;;;;;;;24.73;12.48;;;3.90;99.90;;;;;;4996822;28;97901;-81
2022/01/22 09:04:12;;;;;;;24.45;12.65;;;3.90;99.90;;;;;;4998362;28;94427;-78
2022/01/22 09:06:38;;;;;;;26.42;12.93;;;4.00;99.90;;;;;;4996800;28;96059;-78
2022/01/22 09:09:12;;;;;;;22.90;12.52;;;3.90;99.90;;;;;;4996470;28;94588;-79
2022/01/22 09:11:40;;;;;;;25.52;11.95;;;4.00;99.90;;;;;;4997488;28;95367;-78
2022/01/22 09:14:08;;;;;;;25.67;12.38;;;4.00;99.90;;;;;;4997284;28;97801;-78
2022/01/22 09:16:35;;;;;;;23.88;13.07;;;4.00;99.90;;;;;;4998982;28;94314;-78
2022/01/22 09:19:06;;;;;;;25.38;13.05;;;4.00;99.90;;;;;;4997837;28;94607;-77
2022/01/22 09:21:36;;;;;;;24.35;12.25;;;4.10;99.90;;;;;;4996071;28;97226;-79
2022/01/22 09:24:03;;;;;;;24.52;12.23;;;4.10;99.90;;;;;;4997812;28;95329;-78
2022/01/22 09:26:29;;;;;;;22.00;12.57;;;4.10;99.90;;;;;;4996361;28;94982;-78
2022/01/22 09:28:57;;;;;;;25.60;13.32;;;4.10;99.90;;;;;;4997554;28;94495;-78
2022/01/22 09:31:22;;;;;;;23.60;11.98;;;4.20;99.90;;;;;;4996531;28;95890;-79
2022/01/22 09:33:48;;;;;;;27.63;13.32;;;4.20;99.90;;;;;;4995698;28;97391;-78
2022/01/22 09:36:14;;;;;;;24.77;12.10;;;4.20;99.90;;;;;;4995964;28;94300;-78
2022/01/22 09:38:40;;;;;;;28.77;13.45;;;4.30;99.90;;;;;;4995928;28;94505;-78
2022/01/22 09:41:05;;;;;;;26.45;13.40;;;4.20;99.90;;;;;;4995465;28;97167;-78
2022/01/22 09:43:31;;;;;;;24.63;13.10;;;4.20;99.90;;;;;;4996760;28;95302;-80
2022/01/22 09:45:57;;;;;;;24.52;13.15;;;4.20;99.90;;;;;;4997353;28;94430;-78
2022/01/22 09:48:23;;;;;;;24.73;13.32;;;4.20;99.90;;;;;;4998347;28;94059;-78
2022/01/22 09:50:49;;;;;;;27.17;13.82;;;4.20;99.90;;;;;;4997356;28;95215;-77
2022/01/22 09:53:15;;;;;;;24.85;13.55;;;4.20;99.90;;;;;;4996573;28;94851;-78
2022/01/22 09:55:41;;;;;;;22.75;13.15;;;4.20;99.90;;;;;;4997919;28;95434;-78
2022/01/22 09:58:07;;;;;;;27.38;14.00;;;4.10;99.90;;;;;;4995791;28;94587;-78
2022/01/22 10:00:33;;;;;;;23.80;13.40;;;4.10;99.90;;;;;;4995319;28;97149;-78
2022/01/22 10:02:59;;;;;;;24.63;13.30;;;4.10;99.90;;;;;;4997328;28;94517;-78
2022/01/22 10:05:38;;;;;;;25.27;13.48;;;4.20;99.90;;;;;;4997125;28;94455;-79
2022/01/22 10:08:28;;;;;;;25.15;13.18;;;4.10;99.90;;;;;;4995910;28;94870;-78
2022/01/22 10:10:55;;;;;;;27.30;12.88;;;4.10;99.90;;;;;;4996290;28;94437;-78
2022/01/22 10:13:38;;;;;;;23.58;13.02;;;4.10;99.90;;;;;;4995300;28;97573;-79
2022/01/22 10:16:13;;;;;;;27.88;13.93;;;4.20;99.90;;;;;;4997021;28;94418;-78
2022/01/22 10:18:39;;;;;;;25.10;13.20;;;4.20;99.90;;;;;;4997404;28;94685;-78
2022/01/22 10:21:10;;;;;;;22.25;11.70;;;4.30;99.90;;;;;;4994855;28;99024;-78
2022/01/22 10:23:40;;;;;;;27.88;13.60;;;4.30;99.90;;;;;;4995291;28;97536;-78
2022/01/22 10:26:11;;;;;;;27.77;13.38;;;4.30;99.90;;;;;;4996727;28;94415;-78
2022/01/22 10:28:47;;;;;;;24.20;13.35;;;4.40;99.90;;;;;;4996856;28;94436;-78
2022/01/22 10:31:22;;;;;;;26.20;13.52;;;4.50;99.90;;;;;;4996242;28;95357;-79
2022/01/22 10:34:08;;;;;;;23.48;12.15;;;4.50;99.90;;;;;;4996228;28;94360;-78
2022/01/22 10:36:33;;;;;;;21.33;11.73;;;4.60;99.90;;;;;;4996941;28;94317;-78
2022/01/22 10:38:59;;;;;;;27.92;13.82;;;4.70;99.90;;;;;;4996955;28;93754;-78
2022/01/22 10:41:40;;;;;;;21.23;11.90;;;4.70;99.90;;;;;;4994964;28;97654;-78
2022/01/22 10:44:10;;;;;;;22.42;12.95;;;4.70;99.90;;;;;;4995942;28;96641;-78
2022/01/22 10:46:50;;;;;;;20.75;11.68;;;4.80;99.90;;;;;;4996881;28;95290;-78
2022/01/22 10:49:26;;;;;;;19.75;11.90;;;4.80;99.90;;;;;;4997975;28;94408;-78
2022/01/22 10:51:56;;;;;;;22.80;12.98;;;4.90;99.90;;;;;;4996316;28;95208;-81
2022/01/22 10:54:24;;;;;;;23.35;12.60;;;4.90;99.90;;;;;;4996025;28;95043;-81
2022/01/22 10:56:51;;;;;;;23.10;12.30;;;4.90;99.90;;;;;;4995933;28;94522;-79
2022/01/22 10:59:19;;;;;;;22.35;12.25;;;4.90;99.90;;;;;;4996005;28;94686;-78
2022/01/22 11:01:55;;;;;;;20.10;12.40;;;5.00;99.90;;;;;;4994511;28;98247;-79
2022/01/22 11:04:20;;;;;;;22.13;11.27;;;4.90;99.90;;;;;;4994827;28;96895;-78
2022/01/22 11:06:59;;;;;;;21.10;11.57;;;4.90;99.90;;;;;;4994617;28;94597;-78
2022/01/22 11:09:26;;;;;;;21.77;12.57;;;5.00;99.90;;;;;;4995029;28;94482;-78
2022/01/22 11:11:52;;;;;;;20.10;11.25;;;5.00;99.90;;;;;;4994750;28;97883;-78
2022/01/22 11:14:19;;;;;;;23.35;11.50;;;4.90;99.90;;;;;;4995377;28;97959;-78
2022/01/22 11:16:47;;;;;;;21.30;11.65;;;4.90;99.90;;;;;;4995495;28;94386;-81
2022/01/22 11:19:18;;;;;;;24.20;11.98;;;4.90;99.90;;;;;;4994989;28;94559;-78
2022/01/22 11:21:47;;;;;;;20.92;12.63;;;5.00;99.90;;;;;;4995014;28;95008;-78
2022/01/22 11:24:19;;;;;;;21.08;12.30;;;5.00;99.90;;;;;;4995703;28;94801;-78
2022/01/22 11:26:51;;;;;;;18.17;12.25;;;5.00;99.90;;;;;;4996229;28;94302;-78
2022/01/22 11:29:20;;;;;;;18.60;11.65;;;4.90;99.90;;;;;;4995049;28;93655;-78
2022/01/22 11:31:47;;;;;;;20.38;11.55;;;5.00;99.90;;;;;;4993839;28;98017;-78
2022/01/22 11:34:19;;;;;;;18.25;11.27;;;5.10;99.90;;;;;;4994596;28;96922;-79
2022/01/22 11:37:10;;;;;;;23.25;11.88;;;5.10;99.90;;;;;;4997051;28;95405;-78
2022/01/22 11:39:36;;;;;;;21.70;11.98;;;5.00;99.90;;;;;;4996415;28;94446;-78
2022/01/22 11:42:03;;;;;;;23.65;10.45;;;5.00;99.90;;;;;;4996513;28;95731;-78
2022/01/22 11:45:01;;;;;;;20.75;10.80;;;5.00;99.90;;;;;;4995487;28;94395;-78
2022/01/22 11:47:26;;;;;;;21.20;11.63;;;5.00;99.90;;;;;;4996245;28;94678;-78
2022/01/22 11:50:07;;;;;;;19.10;10.77;;;5.10;99.90;;;;;;4995177;28;94564;-78
2022/01/22 11:52:36;;;;;;;17.55;10.38;;;5.10;99.90;;;;;;4995327;28;95172;-78
2022/01/22 11:55:16;;;;;;;17.15;10.32;;;5.10;99.90;;;;;;4996661;28;94826;-78
2022/01/22 11:57:43;;;;;;;19.13;10.35;;;5.10;99.90;;;;;;4994500;28;94433;-77
2022/01/22 12:00:25;;;;;;;22.77;10.88;;;5.10;99.90;;;;;;4995642;28;94514;-77
2022/01/22 12:03:06;;;;;;;20.90;10.23;;;5.10;99.90;;;;;;5014802;28;96489;-80
2022/01/22 12:05:31;;;;;;;17.08;10.38;;;5.10;99.90;;;;;;5022805;28;94944;-79
2022/01/22 12:07:58;;;;;;;18.73;10.48;;;5.10;99.90;;;;;;5004505;28;94715;-76
2022/01/22 12:14:25;;;;;;;18.52;9.70;;;5.10;99.90;;;;;;5001070;28;94531;-75
2022/01/22 12:16:13;;;;;;;19.02;10.23;;;5.10;99.90;;;;;;5000491;28;94428;-77
2022/01/22 12:18:46;;;;;;;19.40;9.93;;;5.10;99.90;;;;;;5000935;28;94493;-81
2022/01/22 12:21:32;;;;;;;17.23;9.50;;;5.00;99.90;;;;;;5003116;28;93763;-77
2022/01/22 12:24:02;;;;;;;16.30;10.00;;;5.10;99.90;;;;;;5000340;28;97836;-77
2022/01/22 12:26:48;;;;;;;20.55;10.15;;;5.00;99.90;;;;;;5001032;28;94908;-79
2022/01/22 12:29:34;;;;;;;17.75;9.73;;;5.10;99.90;;;;;;5000118;28;95309;-77
2022/01/22 12:32:23;;;;;;;17.83;9.88;;;5.10;99.90;;;;;;5002757;28;94808;-76
2022/01/22 12:35:06;;;;;;;16.83;10.27;;;5.10;99.90;;;;;;5000896;28;97151;-79
2022/01/22 12:37:36;;;;;;;15.80;9.35;;;5.10;99.90;;;;;;5001711;28;94687;-76
2022/01/22 12:40:06;;;;;;;15.15;9.77;;;5.10;99.90;;;;;;5002018;28;94341;-78
2022/01/22 12:42:55;;;;;;;19.23;10.40;;;5.10;99.90;;;;;;5001557;28;94689;-78
2022/01/22 12:45:24;;;;;;;18.50;9.77;;;5.00;99.90;;;;;;5001699;28;95765;-78
2022/01/22 12:47:50;;;;;;;17.98;10.55;;;5.00;99.90;;;;;;5002776;28;95679;-78
2022/01/22 12:50:23;;;;;;;20.42;10.23;;;5.10;99.90;;;;;;5000075;28;94783;-78
2022/01/22 12:52:51;;;;;;;16.00;9.57;;;5.00;99.90;;;;;;4999462;28;94973;-77
2022/01/22 12:55:19;;;;;;;20.73;9.63;;;5.10;99.90;;;;;;5000845;28;95500;-77
2022/01/22 12:57:45;;;;;;;17.13;9.65;;;5.10;99.90;;;;;;5000097;28;98144;-77
2022/01/22 13:00:17;;;;;;;16.77;9.52;;;5.10;99.90;;;;;;5000252;28;94513;-77
2022/01/22 13:02:54;;;;;;;24.23;10.13;;;5.10;99.90;;;;;;5001176;28;94464;-77
2022/01/22 13:05:21;;;;;;;16.42;9.63;;;5.10;99.90;;;;;;5000566;28;94564;-77
2022/01/22 13:07:56;;;;;;;18.50;9.50;;;5.10;99.90;;;;;;4999907;28;96680;-77
2022/01/22 13:10:28;;;;;;;17.17;10.07;;;5.10;99.90;;;;;;5000756;28;94451;-77
2022/01/22 13:12:56;;;;;;;15.70;9.75;;;5.10;99.90;;;;;;5001845;28;93743;-77
2022/01/22 13:15:23;;;;;;;20.20;9.98;;;5.10;99.90;;;;;;4999364;28;96829;-77
2022/01/22 13:17:55;;;;;;;17.05;10.13;;;5.20;99.90;;;;;;4998204;28;94343;-77
2022/01/22 13:20:23;;;;;;;19.05;9.65;;;5.20;99.90;;;;;;4996690;28;95633;-78
2022/01/22 13:22:49;;;;;;;17.45;9.98;;;5.20;99.90;;;;;;4997247;28;94695;-78
2022/01/22 13:25:16;;;;;;;15.60;9.93;;;5.20;99.90;;;;;;4997629;28;94522;-76
2022/01/22 13:27:42;;;;;;;21.63;10.25;;;5.20;99.90;;;;;;4998238;28;96761;-76
2022/01/22 13:30:12;;;;;;;15.63;10.00;;;5.30;99.90;;;;;;4997987;28;94411;-77
2022/01/22 13:35:26;;;;;;;19.88;10.77;;;5.30;99.90;;;;;;4997037;28;94564;-78
2022/01/22 13:49:15;;;;;;;18.23;10.48;;;5.20;99.90;;;;;;4997226;28;94532;-78
2022/01/22 13:51:43;;;;;;;19.52;10.63;;;5.30;99.90;;;;;;4995741;28;94424;-78
2022/01/22 13:54:09;;;;;;;24.13;11.18;;;5.30;99.90;;;;;;4995181;28;94369;-78
2022/01/22 13:57:07;;;;;;;17.25;9.77;;;5.30;99.90;;;;;;4996605;28;96633;-78
2022/01/22 13:59:39;;;;;;;24.08;11.38;;;5.20;99.90;;;;;;4995458;28;96922;-78
2022/01/22 14:04:39;;;;;;;22.70;10.82;;;5.20;99.90;;;;;;4996947;28;93855;-79
2022/01/22 14:07:36;;;;;;;21.83;11.70;;;5.20;99.90;;;;;;4996640;28;95176;-78
2022/01/22 14:10:05;;;;;;;19.88;10.85;;;5.20;99.90;;;;;;4996322;28;94543;-76
2022/01/22 14:12:46;;;;;;;21.75;10.95;;;5.20;99.90;;;;;;4996022;28;95388;-79
2022/01/22 14:15:15;;;;;;;24.15;12.98;;;5.20;99.90;;;;;;4995236;28;94544;-77
2022/01/22 14:18:15;;;;;;;23.58;12.88;;;5.20;99.90;;;;;;4996505;28;94373;-76
2022/01/22 14:21:02;;;;;;;20.52;11.55;;;5.20;99.90;;;;;;4996419;28;94345;-77
2022/01/22 14:23:31;;;;;;;22.05;11.20;;;5.20;99.90;;;;;;4995462;28;94855;-77
2022/01/22 14:26:09;;;;;;;26.73;11.88;;;5.20;99.90;;;;;;4995734;28;94518;-77
2022/01/22 14:28:39;;;;;;;22.10;12.00;;;5.20;99.90;;;;;;4994223;28;97235;-77
2022/01/22 14:31:51;;;;;;;19.60;11.35;;;5.10;99.90;;;;;;4995321;28;98700;-77
2022/01/22 14:34:39;;;;;;;26.40;13.82;;;5.10;99.90;;;;;;4995349;28;94874;-77
2022/01/22 14:37:06;;;;;;;26.30;12.43;;;5.10;99.90;;;;;;4995272;28;94528;-77
2022/01/22 14:45:25;;;;;;;23.55;11.98;;;5.10;99.90;;;;;;4997769;28;94395;-79
2022/01/22 14:47:57;;;;;;;23.63;12.27;;;5.00;99.90;;;;;;4994924;28;94577;-78
2022/01/22 14:50:25;;;;;;;21.10;11.73;;;5.10;99.90;;;;;;4995655;28;94559;-78
2022/01/22 14:52:58;;;;;;;21.60;11.93;;;5.00;99.90;;;;;;4995010;28;97170;-78
2022/01/22 14:55:25;;;;;;;24.27;12.23;;;5.00;99.90;;;;;;4995245;28;94488;-79
2022/01/22 14:57:52;;;;;;;19.13;12.13;;;5.00;99.90;;;;;;4995654;28;93721;-78
2022/01/22 15:00:18;;;;;;;22.67;12.55;;;5.00;99.90;;;;;;4995066;28;95965;-78
2022/01/22 15:02:45;;;;;;;23.73;13.27;;;4.90;99.90;;;;;;4994397;28;97815;-79
2022/01/22 15:05:13;;;;;;;26.88;12.63;;;5.00;99.90;;;;;;4995433;28;95404;-78
2022/01/22 15:07:44;;;;;;;25.00;12.18;;;5.00;99.90;;;;;;4995693;28;94363;-78
2022/01/22 15:10:11;;;;;;;24.42;13.52;;;4.90;99.90;;;;;;4994248;28;100473;-78
2022/01/22 15:12:38;;;;;;;20.55;13.13;;;4.90;99.90;;;;;;4995582;28;94984;-79
2022/01/22 15:15:05;;;;;;;21.95;12.45;;;4.90;99.90;;;;;;4996229;28;94378;-78
2022/01/22 15:17:51;;;;;;;25.33;13.52;;;4.90;99.90;;;;;;4996223;28;94316;-79
2022/01/22 15:20:18;;;;;;;25.05;13.10;;;4.90;99.90;;;;;;4995703;28;95446;-78
2022/01/22 15:22:44;;;;;;;25.83;13.98;;;4.80;99.90;;;;;;4996037;28;95226;-79
2022/01/22 15:25:09;;;;;;;27.13;14.23;;;4.80;99.90;;;;;;4995218;28;94525;-80
2022/01/22 15:27:35;;;;;;;23.35;14.20;;;4.80;99.90;;;;;;5015281;28;94499;-83
2022/01/22 15:30:11;;;;;;;26.00;14.43;;;4.80;99.90;;;;;;5019635;28;94948;-82
2022/01/22 15:32:54;;;;;;;24.70;13.10;;;4.80;99.90;;;;;;5001054;28;94624;-78
2022/01/22 15:35:20;;;;;;;28.85;14.00;;;4.80;99.90;;;;;;4996240;28;94850;-78
2022/01/22 15:37:51;;;;;;;26.52;13.57;;;4.80;99.90;;;;;;4994540;28;94735;-78
2022/01/22 15:40:22;;;;;;;24.20;13.77;;;4.80;99.90;;;;;;4994045;28;97432;-77
2022/01/22 15:42:48;;;;;;;23.25;13.25;;;4.80;99.90;;;;;;4994424;28;97955;-77
2022/01/22 15:45:14;;;;;;;22.77;12.95;;;4.80;99.90;;;;;;4995927;28;94322;-77
2022/01/22 15:47:40;;;;;;;25.85;13.40;;;4.70;99.90;;;;;;4995746;28;93559;-78
2022/01/22 15:50:06;;;;;;;23.45;13.38;;;4.70;99.90;;;;;;4994978;28;94339;-77
2022/01/22 15:52:32;;;;;;;27.13;13.02;;;4.70;99.90;;;;;;4995263;28;94543;-77
2022/01/22 15:54:58;;;;;;;22.33;13.20;;;4.70;99.90;;;;;;4994839;28;95472;-79
2022/01/22 15:57:24;;;;;;;26.25;13.90;;;4.70;99.90;;;;;;4995388;28;94460;-77
2022/01/22 15:59:51;;;;;;;26.23;14.27;;;4.70;99.90;;;;;;4994865;28;95880;-78
2022/01/22 16:02:18;;;;;;;22.13;13.05;;;4.70;99.90;;;;;;4994514;28;95091;-77
2022/01/22 16:04:49;;;;;;;25.92;14.20;;;4.80;99.90;;;;;;4995085;28;94342;-79
2022/01/22 16:09:44;;;;;;;19.20;12.07;;;4.80;99.90;;;;;;4994581;28;95168;-80
2022/01/22 16:12:10;;;;;;;24.17;13.13;;;4.70;99.90;;;;;;4994436;28;96002;-77
2022/01/22 16:14:35;;;;;;;24.80;13.48;;;4.80;99.90;;;;;;4995016;28;94373;-78
2022/01/22 16:17:01;;;;;;;24.95;12.98;;;4.70;99.90;;;;;;4994748;28;94689;-77
2022/01/22 16:19:26;;;;;;;23.45;13.15;;;4.70;99.90;;;;;;4992363;28;98887;-77
2022/01/22 16:21:53;;;;;;;28.27;13.93;;;4.60;99.90;;;;;;4993746;28;97252;-77
2022/01/22 16:24:19;;;;;;;25.48;13.82;;;4.70;99.90;;;;;;4993105;28;94492;-77
2022/01/22 16:26:44;;;;;;;23.58;13.70;;;4.70;99.90;;;;;;4994897;28;94537;-78
2022/01/22 16:29:10;;;;;;;23.20;12.95;;;4.70;99.90;;;;;;4994855;28;95225;-78
2022/01/22 16:31:37;;;;;;;25.80;14.40;;;4.70;99.90;;;;;;4993348;28;97947;-78
2022/01/22 16:34:06;;;;;;;25.60;14.10;;;4.70;99.90;;;;;;4994606;28;94413;-77
2022/01/22 16:36:32;;;;;;;24.13;13.52;;;4.70;99.90;;;;;;4993754;28;93950;-77
2022/01/22 16:38:58;;;;;;;25.20;14.65;;;4.70;99.90;;;;;;4994148;28;95762;-78
2022/01/22 16:41:24;;;;;;;26.67;14.35;;;4.60;99.90;;;;;;4992927;28;96357;-77
2022/01/22 16:43:54;;;;;;;25.95;14.10;;;4.70;99.90;;;;;;4992783;28;95554;-77
2022/01/22 16:46:30;;;;;;;28.33;14.23;;;4.70;99.90;;;;;;4993050;28;94396;-78
2022/01/22 16:57:01;;;;;;;26.40;15.20;;;4.70;99.90;;;;;;4997750;28;94414;-77
2022/01/22 16:59:27;;;;;;;22.48;14.07;;;4.70;99.90;;;;;;4998061;28;94500;-77
2022/01/22 17:01:56;;;;;;;28.70;14.50;;;4.60;99.90;;;;;;4998047;28;93878;-77
2022/01/22 17:04:29;;;;;;;26.98;14.50;;;4.70;99.90;;;;;;4997819;28;94525;-77
2022/01/22 17:06:56;;;;;;;29.17;15.13;;;4.70;99.90;;;;;;4996503;28;94701;-77
2022/01/22 17:14:33;;;;;;;26.52;14.52;;;4.70;99.90;;;;;;4998693;28;94424;-79
2022/01/22 17:17:00;;;;;;;26.58;15.07;;;4.60;99.90;;;;;;4997211;28;94545;-78
2022/01/22 17:19:29;;;;;;;22.88;13.55;;;4.70;99.90;;;;;;4998122;28;96360;-78
2022/01/22 17:21:55;;;;;;;24.65;14.95;;;4.60;99.90;;;;;;4997552;28;94855;-78
2022/01/22 17:24:21;;;;;;;28.30;15.02;;;4.60;99.90;;;;;;4996442;28;94600;-79
2022/01/22 17:26:47;;;;;;;25.45;14.70;;;4.60;99.90;;;;;;4998740;28;93670;-78
2022/01/22 17:29:13;;;;;;;27.95;15.40;;;4.60;99.90;;;;;;4997790;28;95119;-78
2022/01/22 17:31:39;;;;;;;25.85;15.30;;;4.60;99.90;;;;;;4997404;28;95332;-78
2022/01/22 17:34:05;;;;;;;28.50;14.68;;;4.60;99.90;;;;;;4997748;28;95501;-78
2022/01/22 17:36:31;;;;;;;27.77;16.10;;;4.60;99.90;;;;;;4996601;28;94594;-78
2022/01/22 17:38:58;;;;;;;30.58;15.32;;;4.50;99.90;;;;;;4998007;28;94791;-78
2022/01/22 17:41:24;;;;;;;30.13;16.90;;;4.50;99.90;;;;;;4997785;28;94774;-79
2022/01/22 17:43:51;;;;;;;27.10;14.95;;;4.50;99.90;;;;;;4997820;28;94462;-78
2022/01/22 17:46:17;;;;;;;29.98;16.60;;;4.40;99.90;;;;;;4998059;28;94535;-78
2022/01/22 17:48:43;;;;;;;29.88;16.90;;;4.40;99.90;;;;;;4996438;28;96849;-78
2022/01/22 17:51:10;;;;;;;31.33;17.55;;;4.40;99.90;;;;;;4997334;28;93749;-78
2022/01/22 17:53:38;;;;;;;31.23;17.13;;;4.40;99.90;;;;;;4996080;28;94548;-78
2022/01/22 17:56:07;;;;;;;33.22;17.15;;;4.30;99.90;;;;;;4997794;28;94623;-80
2022/01/22 17:58:34;;;;;;;28.52;17.40;;;4.30;99.90;;;;;;4995307;28;99408;-80
2022/01/22 18:01:05;;;;;;;29.95;17.83;;;4.20;99.90;;;;;;4997204;28;94980;-80
2022/01/22 18:03:33;;;;;;;33.97;18.67;;;4.20;99.90;;;;;;4998342;28;94830;-80
2022/01/22 18:05:59;;;;;;;30.52;18.17;;;4.20;99.90;;;;;;4998007;28;94637;-80
2022/01/22 18:08:25;;;;;;;31.23;18.65;;;4.20;99.90;;;;;;4997129;28;95142;-80
2022/01/22 18:10:55;;;;;;;33.72;18.08;;;4.10;99.90;;;;;;4996626;28;94385;-80
2022/01/22 18:13:21;;;;;;;32.38;18.10;;;4.10;99.90;;;;;;4995912;28;94611;-80
2022/01/22 18:15:50;;;;;;;32.50;18.20;;;4.10;99.90;;;;;;4996175;28;93704;-80
2022/01/22 18:18:16;;;;;;;32.03;18.92;;;4.10;99.90;;;;;;4997248;28;95224;-80
2022/01/22 18:20:42;;;;;;;35.00;19.17;;;4.00;99.90;;;;;;4997619;28;94575;-80